Weather at Rogers Municipal Airport-Carter Field

Public forecast

Using degrees Fahrenheit for public forecast. Weather courtesy of forecast.io.

Current aviation weather report (METAR) for Rogers Municipal Airport-Carter Field

Retrieved 2021/04/20 12:58 UTC (51 minutes ago):

KROG 201258Z 01008G15KT 10SM OVC012 03/01 A3005 RMK AO2 SLP174 T00280006

Aviation forecast (TAF) for Rogers Municipal Airport-Carter Field

Retrieved 2021/04/20 12:22 UTC (1 hour ago):

TAF KROG 201120Z 2012/2112 01007KT P6SM SKC FM201400 33013G20KT P6SM OVC015 FM201700 34014G22KT 5SM -RASN OVC015 TEMPO 2018/2021 2SM -SN BR OVC008 FM202100 34012G18KT P6SM OVC025 FM210200 33004KT P6SM SKC